Wind Star — C6CA9 — position and weather

sailwx.info

Track history (hours):
 
Tides and Currents Weather Stations Pressure Air Temp Water Temp Dewpoint Dewpoint Depression Visibility Wind Speed Wind Dir Waves Ship Positions

Wind Star

Operator: Holland America Line

Last reported at 2017-Jul-23 19:14 UTC. Time now 2017-Jul-24 08:23 UTC.
Position N 44°02' E 014°48'.

Length 134 m; draft 4.1 m.

Type: Ship. MMSI: 309163000.

Date/timePositionNaut miles runAvg speedWind from/ knotsBaromVisibWave heightAir tempDewpointWater temp
2017-Jul-23 19:14N 44°02' E 014°48'210.8
2017-Jul-23 19:00N 44°05' E 014°46'510.5
2017-Jul-23 18:30N 44°09' E 014°44'29 1.5
2017-Jul-22 23:34N 44°29' E 014°15'1 7.8
2017-Jul-22 23:29N 44°29' E 014°14'4 7.7
2017-Jul-22 23:00N 44°31' E 014°10'4 7.8
2017-Jul-22 22:30N 44°33' E 014°05'4 7.4
2017-Jul-22 22:00N 44°36' E 014°02'4 7.7
2017-Jul-22 21:31N 44°40' E 014°00'4 7.2
2017-Jul-22 21:00N 44°43' E 014°02'4 7.9
2017-Jul-22 20:30N 44°46' E 014°06'4 8.8
2017-Jul-22 20:00N 44°50' E 014°09'4 8.5
2017-Jul-22 19:30N 44°53' E 014°12'20 8.5
2017-Jul-22 17:08N 45°13' E 014°17'3 7.9
2017-Jul-22 16:45N 45°16' E 014°19'3 8.1
2017-Jul-22 16:23N 45°19' E 014°20'1 0.2
2017-Jul-22 09:14N 45°20' E 014°19'0 0.9
2017-Jul-22 08:57N 45°20' E 014°19'3 7.3
2017-Jul-22 08:29N 45°16' E 014°19'4 7.7
2017-Jul-22 08:00N 45°13' E 014°18'17 8.0
2017-Jul-22 05:55N 44°57' E 014°12'6 8.2
2017-Jul-22 05:11N 44°51' E 014°08'1 8.4
2017-Jul-22 05:00N 44°50' E 014°08'4 8.3
2017-Jul-22 04:30N 44°46' E 014°06'4 8.1
2017-Jul-22 04:00N 44°43' E 014°02'4 8.3
2017-Jul-22 03:30N 44°41' E 013°57'4 8.0
2017-Jul-22 03:00N 44°39' E 013°52'4 8.3
2017-Jul-22 02:30N 44°38' E 013°47'4 8.1
2017-Jul-22 02:00N 44°37' E 013°41'4 8.3
2017-Jul-22 01:30N 44°38' E 013°35'4 7.6
2017-Jul-22 01:00N 44°40' E 013°31'4 7.8
2017-Jul-22 00:29N 44°44' E 013°28'4 7.7
2017-Jul-22 00:00N 44°47' E 013°25'4 7.6
2017-Jul-21 23:30N 44°50' E 013°22'4 7.4
2017-Jul-21 23:00N 44°53' E 013°18'4 7.4
2017-Jul-21 22:30N 44°56' E 013°15'4 8.0
2017-Jul-21 22:00N 44°59' E 013°12'4 8.0
2017-Jul-21 21:30N 45°02' E 013°08'5 9.3
2017-Jul-21 21:00N 45°05' E 013°04'5 9.6
2017-Jul-21 20:30N 45°10' E 013°01'510.6
2017-Jul-21 20:00N 45°15' E 013°01'5 9.9
2017-Jul-21 19:30N 45°20' E 012°58'510.1
2017-Jul-21 19:00N 45°21' E 012°51'510.2
2017-Jul-21 18:30N 45°21' E 012°44'510.1
2017-Jul-21 18:00N 45°22' E 012°37'510.0
2017-Jul-21 17:30N 45°23' E 012°30'5 9.4
2017-Jul-21 17:00N 45°26' E 012°25'3 5.7
2017-Jul-21 16:30N 45°26' E 012°21'1 2.0
2017-Jul-21 15:58N 45°26' E 012°19'0 0.0
2017-Jul-21 15:28N 45°26' E 012°19'0 0.0
2017-Jul-21 14:58N 45°26' E 012°19'0 0.0
2017-Jul-21 14:28N 45°26' E 012°19'0 0.0
2017-Jul-21 13:58N 45°26' E 012°19'0 0.0
2017-Jul-21 13:28N 45°26' E 012°19'0 0.0
2017-Jul-21 12:58N 45°26' E 012°19'0 0.0
2017-Jul-21 12:28N 45°26' E 012°19'0 0.0
2017-Jul-21 11:55N 45°26' E 012°19'0 0.0
2017-Jul-21 11:28N 45°26' E 012°19'0 0.0
2017-Jul-21 10:58N 45°26' E 012°19'0 0.0
2017-Jul-21 10:28N 45°26' E 012°19'0 0.0
2017-Jul-21 09:58N 45°26' E 012°19'0 0.0
2017-Jul-21 09:28N 45°26' E 012°19'0 0.0
2017-Jul-21 08:58N 45°26' E 012°19'0 0.0
2017-Jul-21 08:28N 45°26' E 012°19'0 0.0
2017-Jul-21 07:58N 45°26' E 012°19'0 0.0
2017-Jul-21 07:28N 45°26' E 012°19'0 0.0
2017-Jul-21 06:58N 45°26' E 012°19'0 0.0
2017-Jul-21 06:28N 45°26' E 012°19'0 0.0
2017-Jul-21 05:58N 45°26' E 012°19'0 0.0
2017-Jul-21 05:28N 45°26' E 012°19'0 0.0
2017-Jul-21 05:00N 45°26' E 012°19'1 1.8
2017-Jul-21 04:30N 45°26' E 012°20'3 5.2
2017-Jul-21 04:00N 45°26' E 012°24'4 8.3
2017-Jul-21 03:30N 45°24' E 012°29'6 5.4
2017-Jul-21 02:24N 45°25' E 012°37'3 5.7
2017-Jul-21 01:50N 45°25' E 012°42'2 5.8
2017-Jul-21 01:30N 45°26' E 012°45'3 5.8
2017-Jul-21 01:00N 45°27' E 012°49'3 5.1
2017-Jul-21 00:30N 45°27' E 012°52'3 5.0
2017-Jul-21 00:00N 45°27' E 012°56'3 5.1
2017-Jul-20 23:30N 45°27' E 012°59'3 5.1
2017-Jul-20 23:00N 45°27' E 013°03'3 5.2
2017-Jul-20 22:30N 45°27' E 013°07'3 5.6
2017-Jul-20 22:00N 45°27' E 013°11'3 6.0
2017-Jul-20 21:30N 45°28' E 013°15'3 5.8
2017-Jul-20 21:00N 45°28' E 013°19'3 5.6
2017-Jul-20 20:30N 45°29' E 013°23'3 5.8
2017-Jul-20 20:00N 45°30' E 013°26'3 6.0
2017-Jul-20 19:30N 45°32' E 013°30'2 4.8
2017-Jul-20 19:00N 45°31' E 013°33'0 0.0
2017-Jul-20 18:25N 45°31' E 013°33'0 0.0
2017-Jul-20 17:55N 45°31' E 013°33'0 0.0
2017-Jul-20 17:22N 45°31' E 013°33'0 0.0
2017-Jul-20 16:58N 45°31' E 013°33'0 0.0
2017-Jul-20 16:28N 45°31' E 013°33'0 0.0
2017-Jul-20 15:49N 45°31' E 013°33'0 0.0
2017-Jul-20 15:25N 45°31' E 013°33'0 0.0
2017-Jul-20 14:58N 45°31' E 013°33'0 0.0
2017-Jul-20 13:58N 45°31' E 013°33'0 0.0
2017-Jul-20 13:28N 45°31' E 013°33'0 0.0
2017-Jul-20 12:58N 45°31' E 013°33'0 0.0
2017-Jul-20 12:22N 45°31' E 013°33'0 0.0
2017-Jul-20 11:58N 45°31' E 013°33'0 0.0
2017-Jul-20 11:22N 45°31' E 013°33'0 0.0
2017-Jul-20 10:49N 45°31' E 013°33'0 0.0
2017-Jul-20 10:16N 45°31' E 013°33'0 0.0
2017-Jul-20 09:58N 45°31' E 013°33'0 0.0
2017-Jul-20 09:22N 45°31' E 013°33'0 0.0
2017-Jul-20 08:55N 45°31' E 013°33'0 0.0
2017-Jul-20 08:22N 45°31' E 013°33'0 0.1
2017-Jul-20 07:46N 45°31' E 013°33'0 0.0
2017-Jul-20 07:28N 45°31' E 013°33'0 0.0
2017-Jul-20 06:58N 45°31' E 013°33'0 0.0
2017-Jul-20 06:25N 45°31' E 013°33'0 0.0
2017-Jul-20 05:52N 45°31' E 013°33'0 0.0
2017-Jul-20 05:25N 45°31' E 013°33'0 0.4
2017-Jul-20 05:00N 45°31' E 013°33'3 5.4
2017-Jul-20 04:30N 45°32' E 013°29'3 5.2
2017-Jul-20 04:00N 45°32' E 013°26'3 6.3
2017-Jul-20 03:30N 45°31' E 013°22'3 6.6
2017-Jul-20 03:00N 45°29' E 013°18'3 6.6
2017-Jul-20 02:29N 45°27' E 013°14'3 6.6
2017-Jul-20 02:00N 45°25' E 013°11'3 5.6
2017-Jul-20 01:30N 45°22' E 013°10'3 6.6
2017-Jul-20 01:00N 45°19' E 013°11'3 6.6
2017-Jul-20 00:30N 45°15' E 013°13'3 6.8
2017-Jul-20 00:00N 45°12' E 013°14'4 7.6
2017-Jul-19 23:31N 45°09' E 013°15'4 7.5
2017-Jul-19 23:00N 45°05' E 013°17'4 7.5
2017-Jul-19 22:30N 45°02' E 013°19'4 7.4
2017-Jul-19 22:00N 44°58' E 013°22'4 7.3
2017-Jul-19 21:31N 44°55' E 013°24'4 7.1
2017-Jul-19 21:00N 44°52' E 013°27'4 7.0
2017-Jul-19 20:30N 44°49' E 013°30'4 7.2
2017-Jul-19 20:00N 44°46' E 013°32'4 7.7
2017-Jul-19 19:30N 44°43' E 013°35'4 7.4
2017-Jul-19 19:00N 44°40' E 013°38'4 7.5
2017-Jul-19 18:31N 44°37' E 013°41'4 7.7
2017-Jul-19 18:00N 44°33' E 013°44'4 7.9
2017-Jul-19 17:30N 44°30' E 013°47'4 8.2
2017-Jul-19 17:00N 44°27' E 013°50'4 8.2
2017-Jul-19 16:30N 44°23' E 013°53'4 8.6
2017-Jul-19 16:00N 44°20' E 013°57'4 8.8
2017-Jul-19 15:30N 44°16' E 014°00'10 8.8
2017-Jul-19 14:23N 44°08' E 014°08'3 8.8
2017-Jul-19 13:59N 44°05' E 014°10'4 8.6
2017-Jul-19 13:30N 44°01' E 014°13'4 8.7
2017-Jul-19 13:00N 43°58' E 014°17'4 8.7
2017-Jul-19 12:30N 43°55' E 014°22'8 8.4
2017-Jul-19 11:34N 43°52' E 014°31'  
2017-Jul-14 23:09N 44°29' E 014°15'1 7.2
2017-Jul-14 22:59N 44°29' E 014°14'4 7.3
2017-Jul-14 22:31N 44°31' E 014°09'4 7.7
2017-Jul-14 22:00N 44°33' E 014°05'7 7.3
2017-Jul-14 21:04N 44°39' E 014°02'1 8.0
2017-Jul-14 21:00N 44°40' E 014°02'4 7.9
2017-Jul-14 20:31N 44°44' E 014°03'4 8.1
2017-Jul-14 20:01N 44°47' E 014°05'4 7.7
2017-Jul-14 19:30N 44°51' E 014°08'5 9.3
2017-Jul-14 18:56N 44°55' E 014°11'22 9.9
2017-Jul-14 16:45N 45°16' E 014°18'2 8.0
2017-Jul-14 16:30N 45°18' E 014°19'2 0.2
2017-Jul-14 08:50N 45°20' E 014°19'2 6.5
2017-Jul-14 08:30N 45°18' E 014°19'5 8.8
2017-Jul-14 07:59N 45°14' E 014°18'17 8.7
2017-Jul-14 06:04N 44°57' E 014°12'0 7.8
2017-Jul-14 06:00N 44°57' E 014°12'7 7.7
2017-Jul-14 05:04N 44°50' E 014°08'1 7.9
2017-Jul-14 05:00N 44°50' E 014°07'4 7.8
2017-Jul-14 04:31N 44°47' E 014°05'4 8.0
2017-Jul-14 04:01N 44°43' E 014°02'4 7.9
2017-Jul-14 03:30N 44°41' E 013°57'4 7.8
2017-Jul-14 03:00N 44°39' E 013°53'4 7.8
2017-Jul-14 02:26N 44°37' E 013°47'3 7.8
2017-Jul-14 02:00N 44°35' E 013°43'3 7.0
2017-Jul-14 01:30N 44°35' E 013°38'4 7.3
2017-Jul-14 01:00N 44°37' E 013°33'4 8.5
2017-Jul-14 00:30N 44°40' E 013°30'4 8.4
2017-Jul-14 00:00N 44°44' E 013°27'5 9.1
2017-Jul-13 23:30N 44°48' E 013°23'5 9.7
2017-Jul-13 23:00N 44°52' E 013°19'5 9.8
2017-Jul-13 22:31N 44°56' E 013°15'5 9.7
2017-Jul-13 22:00N 44°60' E 013°12'5 9.3
2017-Jul-13 21:30N 45°03' E 013°08'5 9.4
2017-Jul-13 21:01N 45°07' E 013°04'5 9.4
2017-Jul-13 20:30N 45°12' E 013°02'5 9.6
2017-Jul-13 20:01N 45°17' E 013°01'4 8.7
2017-Jul-13 19:30N 45°20' E 012°57'  
Track history (hours):
 
Tides and Currents Weather Stations Pressure Air Temp Water Temp Dewpoint Dewpoint Depression Visibility Wind Speed Wind Dir Waves Ship Positions

Wind Star

Operator: Holland America Line

Last reported at 2017-Jul-23 19:14 UTC. Time now 2017-Jul-24 08:23 UTC.
Position N 44°02' E 014°48'.

Length 134 m; draft 4.1 m.

Type: Ship. MMSI: 309163000.

Date/timePositionNaut miles runAvg speedWind from/ knotsBaromVisibWave heightAir tempDewpointWater temp
2017-Jul-23 19:14N 44°02' E 014°48'210.8
2017-Jul-23 19:00N 44°05' E 014°46'510.5
2017-Jul-23 18:30N 44°09' E 014°44'29 1.5
2017-Jul-22 23:34N 44°29' E 014°15'1 7.8
2017-Jul-22 23:29N 44°29' E 014°14'4 7.7
2017-Jul-22 23:00N 44°31' E 014°10'4 7.8
2017-Jul-22 22:30N 44°33' E 014°05'4 7.4
2017-Jul-22 22:00N 44°36' E 014°02'4 7.7
2017-Jul-22 21:31N 44°40' E 014°00'4 7.2
2017-Jul-22 21:00N 44°43' E 014°02'4 7.9
2017-Jul-22 20:30N 44°46' E 014°06'4 8.8
2017-Jul-22 20:00N 44°50' E 014°09'4 8.5
2017-Jul-22 19:30N 44°53' E 014°12'20 8.5
2017-Jul-22 17:08N 45°13' E 014°17'3 7.9
2017-Jul-22 16:45N 45°16' E 014°19'3 8.1
2017-Jul-22 16:23N 45°19' E 014°20'1 0.2
2017-Jul-22 09:14N 45°20' E 014°19'0 0.9
2017-Jul-22 08:57N 45°20' E 014°19'3 7.3
2017-Jul-22 08:29N 45°16' E 014°19'4 7.7
2017-Jul-22 08:00N 45°13' E 014°18'17 8.0
2017-Jul-22 05:55N 44°57' E 014°12'6 8.2
2017-Jul-22 05:11N 44°51' E 014°08'1 8.4
2017-Jul-22 05:00N 44°50' E 014°08'4 8.3
2017-Jul-22 04:30N 44°46' E 014°06'4 8.1
2017-Jul-22 04:00N 44°43' E 014°02'4 8.3
2017-Jul-22 03:30N 44°41' E 013°57'4 8.0
2017-Jul-22 03:00N 44°39' E 013°52'4 8.3
2017-Jul-22 02:30N 44°38' E 013°47'4 8.1
2017-Jul-22 02:00N 44°37' E 013°41'4 8.3
2017-Jul-22 01:30N 44°38' E 013°35'4 7.6
2017-Jul-22 01:00N 44°40' E 013°31'4 7.8
2017-Jul-22 00:29N 44°44' E 013°28'4 7.7
2017-Jul-22 00:00N 44°47' E 013°25'4 7.6
2017-Jul-21 23:30N 44°50' E 013°22'4 7.4
2017-Jul-21 23:00N 44°53' E 013°18'4 7.4
2017-Jul-21 22:30N 44°56' E 013°15'4 8.0
2017-Jul-21 22:00N 44°59' E 013°12'4 8.0
2017-Jul-21 21:30N 45°02' E 013°08'5 9.3
2017-Jul-21 21:00N 45°05' E 013°04'5 9.6
2017-Jul-21 20:30N 45°10' E 013°01'510.6
2017-Jul-21 20:00N 45°15' E 013°01'5 9.9
2017-Jul-21 19:30N 45°20' E 012°58'510.1
2017-Jul-21 19:00N 45°21' E 012°51'510.2
2017-Jul-21 18:30N 45°21' E 012°44'510.1
2017-Jul-21 18:00N 45°22' E 012°37'510.0
2017-Jul-21 17:30N 45°23' E 012°30'5 9.4
2017-Jul-21 17:00N 45°26' E 012°25'3 5.7
2017-Jul-21 16:30N 45°26' E 012°21'1 2.0
2017-Jul-21 15:58N 45°26' E 012°19'0 0.0
2017-Jul-21 15:28N 45°26' E 012°19'0 0.0
2017-Jul-21 14:58N 45°26' E 012°19'0 0.0
2017-Jul-21 14:28N 45°26' E 012°19'0 0.0
2017-Jul-21 13:58N 45°26' E 012°19'0 0.0
2017-Jul-21 13:28N 45°26' E 012°19'0 0.0
2017-Jul-21 12:58N 45°26' E 012°19'0 0.0
2017-Jul-21 12:28N 45°26' E 012°19'0 0.0
2017-Jul-21 11:55N 45°26' E 012°19'0 0.0
2017-Jul-21 11:28N 45°26' E 012°19'0 0.0
2017-Jul-21 10:58N 45°26' E 012°19'0 0.0
2017-Jul-21 10:28N 45°26' E 012°19'0 0.0
2017-Jul-21 09:58N 45°26' E 012°19'0 0.0
2017-Jul-21 09:28N 45°26' E 012°19'0 0.0
2017-Jul-21 08:58N 45°26' E 012°19'0 0.0
2017-Jul-21 08:28N 45°26' E 012°19'0 0.0
2017-Jul-21 07:58N 45°26' E 012°19'0 0.0
2017-Jul-21 07:28N 45°26' E 012°19'0 0.0
2017-Jul-21 06:58N 45°26' E 012°19'0 0.0
2017-Jul-21 06:28N 45°26' E 012°19'0 0.0
2017-Jul-21 05:58N 45°26' E 012°19'0 0.0
2017-Jul-21 05:28N 45°26' E 012°19'0 0.0
2017-Jul-21 05:00N 45°26' E 012°19'1 1.8
2017-Jul-21 04:30N 45°26' E 012°20'3 5.2
2017-Jul-21 04:00N 45°26' E 012°24'4 8.3
2017-Jul-21 03:30N 45°24' E 012°29'6 5.4
2017-Jul-21 02:24N 45°25' E 012°37'3 5.7
2017-Jul-21 01:50N 45°25' E 012°42'2 5.8
2017-Jul-21 01:30N 45°26' E 012°45'3 5.8
2017-Jul-21 01:00N 45°27' E 012°49'3 5.1
2017-Jul-21 00:30N 45°27' E 012°52'3 5.0
2017-Jul-21 00:00N 45°27' E 012°56'3 5.1
2017-Jul-20 23:30N 45°27' E 012°59'3 5.1
2017-Jul-20 23:00N 45°27' E 013°03'3 5.2
2017-Jul-20 22:30N 45°27' E 013°07'3 5.6
2017-Jul-20 22:00N 45°27' E 013°11'3 6.0
2017-Jul-20 21:30N 45°28' E 013°15'3 5.8
2017-Jul-20 21:00N 45°28' E 013°19'3 5.6
2017-Jul-20 20:30N 45°29' E 013°23'3 5.8
2017-Jul-20 20:00N 45°30' E 013°26'3 6.0
2017-Jul-20 19:30N 45°32' E 013°30'2 4.8
2017-Jul-20 19:00N 45°31' E 013°33'0 0.0
2017-Jul-20 18:25N 45°31' E 013°33'0 0.0
2017-Jul-20 17:55N 45°31' E 013°33'0 0.0
2017-Jul-20 17:22N 45°31' E 013°33'0 0.0
2017-Jul-20 16:58N 45°31' E 013°33'0 0.0
2017-Jul-20 16:28N 45°31' E 013°33'0 0.0
2017-Jul-20 15:49N 45°31' E 013°33'0 0.0
2017-Jul-20 15:25N 45°31' E 013°33'0 0.0
2017-Jul-20 14:58N 45°31' E 013°33'0 0.0
2017-Jul-20 13:58N 45°31' E 013°33'0 0.0
2017-Jul-20 13:28N 45°31' E 013°33'0 0.0
2017-Jul-20 12:58N 45°31' E 013°33'0 0.0
2017-Jul-20 12:22N 45°31' E 013°33'0 0.0
2017-Jul-20 11:58N 45°31' E 013°33'0 0.0
2017-Jul-20 11:22N 45°31' E 013°33'0 0.0
2017-Jul-20 10:49N 45°31' E 013°33'0 0.0
2017-Jul-20 10:16N 45°31' E 013°33'0 0.0
2017-Jul-20 09:58N 45°31' E 013°33'0 0.0
2017-Jul-20 09:22N 45°31' E 013°33'0 0.0
2017-Jul-20 08:55N 45°31' E 013°33'0 0.0
2017-Jul-20 08:22N 45°31' E 013°33'0 0.1
2017-Jul-20 07:46N 45°31' E 013°33'0 0.0
2017-Jul-20 07:28N 45°31' E 013°33'0 0.0
2017-Jul-20 06:58N 45°31' E 013°33'0 0.0
2017-Jul-20 06:25N 45°31' E 013°33'0 0.0
2017-Jul-20 05:52N 45°31' E 013°33'0 0.0
2017-Jul-20 05:25N 45°31' E 013°33'0 0.4
2017-Jul-20 05:00N 45°31' E 013°33'3 5.4
2017-Jul-20 04:30N 45°32' E 013°29'3 5.2
2017-Jul-20 04:00N 45°32' E 013°26'3 6.3
2017-Jul-20 03:30N 45°31' E 013°22'3 6.6
2017-Jul-20 03:00N 45°29' E 013°18'3 6.6
2017-Jul-20 02:29N 45°27' E 013°14'3 6.6
2017-Jul-20 02:00N 45°25' E 013°11'3 5.6
2017-Jul-20 01:30N 45°22' E 013°10'3 6.6
2017-Jul-20 01:00N 45°19' E 013°11'3 6.6
2017-Jul-20 00:30N 45°15' E 013°13'3 6.8
2017-Jul-20 00:00N 45°12' E 013°14'4 7.6
2017-Jul-19 23:31N 45°09' E 013°15'4 7.5
2017-Jul-19 23:00N 45°05' E 013°17'4 7.5
2017-Jul-19 22:30N 45°02' E 013°19'4 7.4
2017-Jul-19 22:00N 44°58' E 013°22'4 7.3
2017-Jul-19 21:31N 44°55' E 013°24'4 7.1
2017-Jul-19 21:00N 44°52' E 013°27'4 7.0
2017-Jul-19 20:30N 44°49' E 013°30'4 7.2
2017-Jul-19 20:00N 44°46' E 013°32'4 7.7
2017-Jul-19 19:30N 44°43' E 013°35'4 7.4
2017-Jul-19 19:00N 44°40' E 013°38'4 7.5
2017-Jul-19 18:31N 44°37' E 013°41'4 7.7
2017-Jul-19 18:00N 44°33' E 013°44'4 7.9
2017-Jul-19 17:30N 44°30' E 013°47'4 8.2
2017-Jul-19 17:00N 44°27' E 013°50'4 8.2
2017-Jul-19 16:30N 44°23' E 013°53'4 8.6
2017-Jul-19 16:00N 44°20' E 013°57'4 8.8
2017-Jul-19 15:30N 44°16' E 014°00'10 8.8
2017-Jul-19 14:23N 44°08' E 014°08'3 8.8
2017-Jul-19 13:59N 44°05' E 014°10'4 8.6
2017-Jul-19 13:30N 44°01' E 014°13'4 8.7
2017-Jul-19 13:00N 43°58' E 014°17'4 8.7
2017-Jul-19 12:30N 43°55' E 014°22'8 8.4
2017-Jul-19 11:34N 43°52' E 014°31'  
2017-Jul-14 23:09N 44°29' E 014°15'1 7.2
2017-Jul-14 22:59N 44°29' E 014°14'4 7.3
2017-Jul-14 22:31N 44°31' E 014°09'4 7.7
2017-Jul-14 22:00N 44°33' E 014°05'7 7.3
2017-Jul-14 21:04N 44°39' E 014°02'1 8.0
2017-Jul-14 21:00N 44°40' E 014°02'4 7.9
2017-Jul-14 20:31N 44°44' E 014°03'4 8.1
2017-Jul-14 20:01N 44°47' E 014°05'4 7.7
2017-Jul-14 19:30N 44°51' E 014°08'5 9.3
2017-Jul-14 18:56N 44°55' E 014°11'22 9.9
2017-Jul-14 16:45N 45°16' E 014°18'2 8.0
2017-Jul-14 16:30N 45°18' E 014°19'2 0.2
2017-Jul-14 08:50N 45°20' E 014°19'2 6.5
2017-Jul-14 08:30N 45°18' E 014°19'5 8.8
2017-Jul-14 07:59N 45°14' E 014°18'17 8.7
2017-Jul-14 06:04N 44°57' E 014°12'0 7.8
2017-Jul-14 06:00N 44°57' E 014°12'7 7.7
2017-Jul-14 05:04N 44°50' E 014°08'1 7.9
2017-Jul-14 05:00N 44°50' E 014°07'4 7.8
2017-Jul-14 04:31N 44°47' E 014°05'4 8.0
2017-Jul-14 04:01N 44°43' E 014°02'4 7.9
2017-Jul-14 03:30N 44°41' E 013°57'4 7.8
2017-Jul-14 03:00N 44°39' E 013°53'4 7.8
2017-Jul-14 02:26N 44°37' E 013°47'3 7.8
2017-Jul-14 02:00N 44°35' E 013°43'3 7.0
2017-Jul-14 01:30N 44°35' E 013°38'4 7.3
2017-Jul-14 01:00N 44°37' E 013°33'4 8.5
2017-Jul-14 00:30N 44°40' E 013°30'4 8.4
2017-Jul-14 00:00N 44°44' E 013°27'5 9.1
2017-Jul-13 23:30N 44°48' E 013°23'5 9.7
2017-Jul-13 23:00N 44°52' E 013°19'5 9.8
2017-Jul-13 22:31N 44°56' E 013°15'5 9.7
2017-Jul-13 22:00N 44°60' E 013°12'5 9.3
2017-Jul-13 21:30N 45°03' E 013°08'5 9.4
2017-Jul-13 21:01N 45°07' E 013°04'5 9.4
2017-Jul-13 20:30N 45°12' E 013°02'5 9.6
2017-Jul-13 20:01N 45°17' E 013°01'4 8.7
2017-Jul-13 19:30N 45°20' E 012°57'  

Dump ship's entire track history